Time;durP1;ratioP1;P1;durP2;ratioP2;P2;SDS_P1;SDS_P2;PMS_P1;PMS_P2;Temp;Humidity;BMP_temperature;BMP_pressure;BME280_temperature;BME280_humidity;BME280_pressure;Samples;Min_cycle;Max_cycle;Signal;HPM_P1;HPM_P2
2021/08/05 00:00:24;;;;;;;5.90;5.40;;;;;;;16.66;81.28;101101.34;10461594;28;20056;-67
2021/08/05 00:05:27;;;;;;;6.97;6.35;;;;;;;16.69;81.09;101090.53;10461049;28;20056;-66
2021/08/05 00:10:29;;;;;;;8.30;5.75;;;;;;;16.84;81.09;101083.19;10460914;28;20041;-66
2021/08/05 00:15:31;;;;;;;8.23;6.82;;;;;;;16.75;80.94;101077.78;10459231;28;20056;-68
2021/08/05 00:20:34;;;;;;;8.40;6.45;;;;;;;16.66;81.63;101074.03;10459074;28;20075;-64
2021/08/05 00:25:36;;;;;;;7.43;6.72;;;;;;;16.76;81.03;101072.38;10460619;28;20394;-66
2021/08/05 00:30:38;;;;;;;7.60;6.65;;;;;;;16.39;82.50;101083.19;10460479;28;20048;-66
2021/08/05 00:35:41;;;;;;;6.05;5.45;;;;;;;16.32;82.19;101068.75;10458710;28;20045;-66
2021/08/05 00:40:43;;;;;;;7.13;5.50;;;;;;;16.39;82.80;101069.09;10459641;28;20500;-66
2021/08/05 00:45:45;;;;;;;5.20;4.80;;;;;;;16.49;81.85;101059.50;10459704;28;20045;-65
2021/08/05 00:50:49;;;;;;;6.18;5.63;;;;;;;16.51;82.42;101052.31;10459186;28;20060;-64
2021/08/05 00:55:51;;;;;;;7.10;6.50;;;;;;;16.27;82.29;101050.63;10458210;28;20052;-64
2021/08/05 01:01:00;;;;;;;6.20;5.60;;;;;;;16.48;82.30;101055.19;10457721;28;20409;-65
2021/08/05 01:06:37;;;;;;;6.50;5.72;;;;;;;16.56;81.50;101051.94;10458061;28;20048;-65
2021/08/05 01:11:44;;;;;;;9.07;6.47;;;;;;;16.64;80.92;101047.75;10458525;28;20049;-67
2021/08/05 01:16:47;;;;;;;7.68;6.97;;;;;;;16.04;83.57;101057.69;10458067;28;20044;-65
2021/08/05 01:22:00;;;;;;;9.23;8.43;;;;;;;15.91;83.80;101052.47;10458373;28;20052;-66
2021/08/05 01:27:03;;;;;;;9.35;8.38;;;;;;;15.88;83.92;101049.22;10456979;28;20057;-67
2021/08/05 01:32:07;;;;;;;9.80;7.38;;;;;;;15.76;83.52;101061.56;10457600;28;20049;-66
2021/08/05 01:37:10;;;;;;;9.10;7.88;;;;;;;15.85;82.79;101047.66;10456910;28;20408;-65
2021/08/05 01:42:14;;;;;;;8.80;7.90;;;;;;;15.73;84.02;101049.38;10456218;28;20048;-65
2021/08/05 01:47:17;;;;;;;9.13;8.32;;;;;;;15.81;82.68;101050.66;10456048;28;20056;-66
2021/08/05 01:52:19;;;;;;;8.85;8.05;;;;;;;15.39;83.98;101043.16;10456202;28;20489;-65
2021/08/05 01:57:22;;;;;;;8.80;7.97;;;;;;;15.52;83.81;101038.66;10455227;28;20045;-66
2021/08/05 02:02:24;;;;;;;14.40;8.50;;;;;;;15.58;83.80;101035.56;10456772;28;20060;-66
2021/08/05 02:07:33;;;;;;;8.13;7.32;;;;;;;15.48;83.80;101033.72;10456851;28;20053;-66
2021/08/05 02:12:46;;;;;;;12.35;10.98;;;;;;;15.47;84.34;101032.03;10455343;28;20111;-67
2021/08/05 02:17:50;;;;;;;13.45;10.50;;;;;;;15.49;84.06;101030.97;10456530;28;20055;-65
2021/08/05 02:22:52;;;;;;;12.10;10.90;;;;;;;15.30;84.54;101017.44;10455263;28;20049;-65
2021/08/05 02:27:55;;;;;;;15.07;10.60;;;;;;;15.37;84.63;101010.78;10456139;28;20056;-65
2021/08/05 02:32:57;;;;;;;13.45;12.07;;;;;;;15.22;84.17;101003.03;10456337;28;20084;-66
2021/08/05 02:38:00;;;;;;;14.57;11.55;;;;;;;15.42;83.69;101001.56;10456156;28;20057;-65
2021/08/05 02:43:05;;;;;;;13.65;12.40;;;;;;;15.45;83.91;100995.22;10456141;28;20045;-66
2021/08/05 02:48:09;;;;;;;15.43;13.82;;;;;;;15.30;84.28;100999.84;10454365;28;20049;-65
2021/08/05 02:53:11;;;;;;;16.67;13.57;;;;;;;15.41;84.29;100996.38;10456280;28;20045;-64
2021/08/05 02:58:14;;;;;;;16.08;14.30;;;;;;;15.22;84.91;100992.47;10454435;28;20048;-63
2021/08/05 03:03:22;;;;;;;17.92;16.02;;;;;;;15.26;84.41;100995.72;10455677;28;20045;-69
2021/08/05 03:08:24;;;;;;;14.13;12.75;;;;;;;15.30;83.97;100991.06;10455212;28;20045;-64
2021/08/05 03:13:27;;;;;;;18.25;16.30;;;;;;;15.18;84.81;100998.94;10455214;28;20045;-67
2021/08/05 03:18:29;;;;;;;17.00;15.40;;;;;;;15.18;85.12;100990.16;10455393;28;20060;-64
2021/08/05 03:23:31;;;;;;;18.80;17.00;;;;;;;15.17;84.71;100999.06;10458023;28;20417;-64
2021/08/05 03:28:34;;;;;;;16.77;15.07;;;;;;;15.27;83.81;100993.94;10462194;28;20049;-65
2021/08/05 03:33:36;;;;;;;23.38;19.48;;;;;;;15.23;84.87;100990.66;10461171;28;20048;-65
2021/08/05 03:38:38;;;;;;;22.95;20.15;;;;;;;15.17;84.84;100984.06;10461477;28;20049;-67
2021/08/05 03:43:41;;;;;;;24.58;20.90;;;;;;;15.02;86.12;100974.66;10460661;28;20052;-65
2021/08/05 03:48:43;;;;;;;21.38;19.00;;;;;;;15.20;84.75;100965.38;10461610;28;20064;-64
2021/08/05 03:53:46;;;;;;;22.83;20.15;;;;;;;15.16;85.22;100968.34;10461225;28;20382;-64
2021/08/05 03:58:49;;;;;;;21.92;19.63;;;;;;;15.24;85.23;100958.91;10460806;28;20075;-65
2021/08/05 04:03:53;;;;;;;22.85;20.45;;;;;;;15.32;84.91;100965.44;10461917;28;20087;-67
2021/08/05 04:08:55;;;;;;;20.95;18.85;;;;;;;15.23;85.34;100959.88;10460541;28;20049;-64
2021/08/05 04:13:57;;;;;;;25.08;20.50;;;;;;;15.08;85.51;100962.81;10459912;28;20041;-66
2021/08/05 04:19:00;;;;;;;23.27;20.80;;;;;;;15.27;85.05;100957.03;10459588;28;20052;-64
2021/08/05 04:24:02;;;;;;;23.38;20.50;;;;;;;15.26;85.03;100969.34;10460712;28;20045;-64
2021/08/05 04:29:04;;;;;;;27.80;22.35;;;;;;;15.17;85.22;100962.97;10458969;28;20045;-65
2021/08/05 04:34:07;;;;;;;22.67;20.23;;;;;;;15.36;84.35;100970.34;10459930;28;20416;-67
2021/08/05 04:39:09;;;;;;;21.85;19.65;;;;;;;15.32;85.00;100968.91;10459614;28;20412;-68
2021/08/05 04:44:11;;;;;;;26.20;19.85;;;;;;;15.60;84.65;100972.09;10459639;28;20055;-65
2021/08/05 04:49:14;;;;;;;22.52;18.55;;;;;;;15.47;84.35;100969.56;10459629;28;20492;-66
2021/08/05 04:54:16;;;;;;;22.50;20.15;;;;;;;15.49;85.30;100967.63;10459028;28;20485;-66
2021/08/05 04:59:18;;;;;;;21.58;19.35;;;;;;;15.40;85.00;100960.44;10458691;28;20053;-68
2021/08/05 05:04:21;;;;;;;20.17;18.17;;;;;;;15.41;84.87;100960.28;10458912;28;20049;-69
2021/08/05 05:09:23;;;;;;;21.05;17.90;;;;;;;15.40;85.39;100958.63;10458499;28;20053;-68
2021/08/05 05:14:26;;;;;;;20.25;18.10;;;;;;;15.67;84.82;100965.41;10458747;28;20049;-68
2021/08/05 05:19:28;;;;;;;25.73;18.75;;;;;;;15.66;84.82;100955.78;10458511;28;20053;-67
2021/08/05 05:24:30;;;;;;;21.90;18.85;;;;;;;15.53;85.38;100958.53;10458200;28;20067;-67
2021/08/05 05:29:36;;;;;;;21.25;18.17;;;;;;;15.89;84.40;100956.72;10457847;28;20044;-66
2021/08/05 05:34:39;;;;;;;19.63;17.58;;;;;;;16.04;84.07;100957.31;10457598;28;20480;-68
2021/08/05 05:39:41;;;;;;;17.90;16.13;;;;;;;16.25;83.13;100949.50;10457335;28;20056;-65
2021/08/05 05:44:44;;;;;;;22.33;19.92;;;;;;;16.13;83.76;100947.84;10456732;28;20052;-66
2021/08/05 05:49:47;;;;;;;21.23;18.65;;;;;;;16.09;84.08;100949.88;10457028;28;20481;-69
2021/08/05 05:54:50;;;;;;;20.90;18.83;;;;;;;16.33;83.23;100938.34;10457318;28;20123;-67
2021/08/05 05:59:52;;;;;;;22.35;19.23;;;;;;;16.38;84.04;100937.97;10456859;28;20052;-67
2021/08/05 06:04:54;;;;;;;25.90;21.08;;;;;;;16.52;83.52;100945.63;10456702;28;20052;-66
2021/08/05 06:09:56;;;;;;;26.80;24.10;;;;;;;16.49;82.64;100938.78;10456350;28;20049;-67
2021/08/05 06:14:59;;;;;;;20.10;18.00;;;;;;;16.67;82.96;100944.38;10456336;28;20049;-67
2021/08/05 06:20:02;;;;;;;22.65;20.42;;;;;;;16.71;82.38;100951.13;10422403;28;20139;-67
2021/08/05 06:25:05;;;;;;;23.98;21.42;;;;;;;16.61;83.17;100951.97;10456889;28;20049;-65
2021/08/05 06:30:09;;;;;;;22.30;19.92;;;;;;;16.67;83.02;100954.97;10455999;28;20079;-66
2021/08/05 06:35:11;;;;;;;21.58;19.33;;;;;;;17.11;81.49;100960.25;10456847;28;20045;-66
2021/08/05 06:40:14;;;;;;;17.75;15.95;;;;;;;17.26;81.38;100953.72;10455901;28;20532;-66
2021/08/05 06:45:17;;;;;;;20.85;18.85;;;;;;;17.07;82.72;100956.19;10455948;28;20057;-66
2021/08/05 06:50:19;;;;;;;23.85;21.33;;;;;;;17.13;81.34;100954.84;10456234;28;20057;-67
2021/08/05 06:55:22;;;;;;;21.13;18.17;;;;;;;17.39;81.03;100950.03;10455656;28;20060;-67
2021/08/05 07:00:24;;;;;;;20.67;18.58;;;;;;;17.54;80.79;100946.09;10462659;28;20545;-69
2021/08/05 07:05:26;;;;;;;24.80;22.38;;;;;;;17.83;80.62;100948.91;10463886;28;20049;-68
2021/08/05 07:10:29;;;;;;;25.25;22.85;;;;;;;17.70;80.98;100940.34;10463197;28;20056;-69
2021/08/05 07:15:32;;;;;;;24.27;21.88;;;;;;;17.93;80.61;100946.34;10463230;28;20049;-70
2021/08/05 07:20:34;;;;;;;23.23;20.80;;;;;;;18.17;80.26;100945.19;10462694;28;20045;-68
2021/08/05 07:25:36;;;;;;;24.75;22.35;;;;;;;18.26;79.79;100944.38;10462902;28;20122;-69
2021/08/05 07:30:39;;;;;;;23.08;20.67;;;;;;;18.53;78.89;100940.28;10462423;28;20049;-69
2021/08/05 07:35:41;;;;;;;26.70;24.10;;;;;;;18.80;78.58;100933.47;10462413;28;20056;-68
2021/08/05 07:40:44;;;;;;;24.13;21.90;;;;;;;19.33;77.20;100932.22;10462534;28;20060;-68
2021/08/05 07:45:46;;;;;;;26.35;23.60;;;;;;;19.44;75.90;100934.75;10461680;28;20053;-66
2021/08/05 07:50:48;;;;;;;24.75;22.27;;;;;;;19.84;74.09;100923.06;10461775;28;20049;-69
2021/08/05 07:55:51;;;;;;;21.98;19.88;;;;;;;20.32;72.92;100911.34;10460093;28;20509;-66
2021/08/05 08:00:53;;;;;;;23.58;21.30;;;;;;;19.97;72.91;100909.44;10461220;28;20068;-68
2021/08/05 08:05:56;;;;;;;23.08;20.88;;;;;;;20.42;69.59;100898.84;10460556;28;20106;-65
2021/08/05 08:10:58;;;;;;;25.77;22.23;;;;;;;20.38;69.77;100896.63;10460587;28;20055;-69
2021/08/05 08:16:03;;;;;;;23.27;21.08;;;;;;;20.96;67.28;100900.69;10460985;28;20130;-67
2021/08/05 08:21:05;;;;;;;22.50;20.25;;;;;;;19.96;68.29;100900.63;10460526;28;20052;-66
2021/08/05 08:26:08;;;;;;;23.73;21.35;;;;;;;21.21;67.35;100898.25;10460802;28;20449;-65
2021/08/05 08:31:11;;;;;;;20.85;18.90;;;;;;;22.46;64.90;100886.25;10458792;28;20393;-67
2021/08/05 08:36:14;;;;;;;20.20;18.13;;;;;;;21.80;66.62;100890.47;10459787;28;20045;-69
2021/08/05 08:41:19;;;;;;;22.05;20.02;;;;;;;22.26;63.95;100883.00;10459831;28;20071;-65
2021/08/05 08:46:22;;;;;;;22.15;20.10;;;;;;;22.17;61.36;100883.97;10458705;28;20063;-67
2021/08/05 08:51:25;;;;;;;19.05;17.35;;;;;;;23.08;61.22;100876.97;10458464;28;20163;-66
2021/08/05 08:56:28;;;;;;;22.08;19.77;;;;;;;22.50;63.68;100879.56;10458993;28;20045;-65
2021/08/05 09:01:31;;;;;;;18.17;15.75;;;;;;;23.51;61.64;100893.59;10458391;28;20048;-65
2021/08/05 09:06:34;;;;;;;20.05;18.17;;;;;;;23.78;59.00;100888.84;10458635;28;20048;-65
2021/08/05 09:11:36;;;;;;;18.08;16.35;;;;;;;24.19;56.28;100881.50;10458915;28;20127;-66
2021/08/05 09:16:39;;;;;;;18.92;17.17;;;;;;;23.99;58.31;100882.94;10457011;28;20449;-66
2021/08/05 09:21:53;;;;;;;21.67;19.45;;;;;;;22.68;55.99;100871.44;10457349;28;20151;-65
2021/08/05 09:27:02;;;;;;;22.55;18.70;;;;;;;23.52;57.38;100869.38;10457876;28;20055;-67
2021/08/05 09:32:04;;;;;;;20.25;18.33;;;;;;;22.15;59.53;100865.44;10456621;28;20052;-67
2021/08/05 09:37:10;;;;;;;22.23;19.88;;;;;;;21.49;63.99;100862.50;10458090;28;20040;-66
2021/08/05 09:42:15;;;;;;;19.67;17.92;;;;;;;23.35;59.67;100854.38;10457457;28;20041;-65
2021/08/05 09:47:20;;;;;;;19.58;17.65;;;;;;;24.82;56.07;100846.66;10457127;28;20049;-67
2021/08/05 09:52:32;;;;;;;21.17;19.27;;;;;;;25.11;52.11;100845.88;10456876;28;20045;-65
2021/08/05 09:57:39;;;;;;;20.90;18.70;;;;;;;22.62;57.70;100842.75;10456933;28;20053;-64
2021/08/05 10:02:49;;;;;;;20.33;18.42;;;;;;;22.67;58.19;100843.06;10456844;28;20049;-64
2021/08/05 10:07:54;;;;;;;18.42;16.42;;;;;;;24.26;58.19;100828.13;10456624;28;20052;-65
2021/08/05 10:12:58;;;;;;;17.48;15.68;;;;;;;23.76;54.30;100830.22;10456575;28;20049;-67
2021/08/05 10:18:01;;;;;;;16.45;14.88;;;;;;;23.28;57.54;100818.69;10456485;28;20049;-66
2021/08/05 10:23:04;;;;;;;18.63;16.83;;;;;;;23.98;53.02;100809.09;10455665;28;20053;-64
2021/08/05 10:28:06;;;;;;;17.40;15.80;;;;;;;23.74;55.30;100808.16;10455114;28;20052;-66
2021/08/05 10:33:09;;;;;;;14.35;12.75;;;;;;;24.43;52.81;100799.44;10461268;28;20055;-65
2021/08/05 10:38:11;;;;;;;11.85;10.68;;;;;;;26.49;50.27;100795.19;10462844;28;20041;-65
2021/08/05 10:43:13;;;;;;;12.32;11.20;;;;;;;25.61;51.43;100795.28;10462977;28;20048;-67
2021/08/05 10:48:16;;;;;;;13.02;11.85;;;;;;;24.91;50.76;100791.16;10464420;28;20076;-66
2021/08/05 10:53:41;;;;;;;16.17;14.68;;;;;;;24.58;51.05;100783.44;10464006;28;20053;-67
2021/08/05 10:59:11;;;;;;;14.80;12.55;;;;;;;25.38;50.73;100774.75;10463817;28;20059;-66
2021/08/05 11:04:33;;;;;;;709.93;82.83;;;;;;;26.22;48.60;100772.66;10462320;28;20519;-66
2021/08/05 11:09:35;;;;;;;13.23;12.02;;;;;;;25.73;48.29;100774.16;10463277;28;20049;-66
2021/08/05 11:14:38;;;;;;;17.27;13.32;;;;;;;25.17;48.43;100761.28;10463290;28;20104;-65
2021/08/05 11:19:41;;;;;;;11.75;9.60;;;;;;;26.51;48.22;100764.47;10462809;28;20041;-64
2021/08/05 11:24:47;;;;;;;13.45;12.23;;;;;;;26.85;45.83;100762.06;10461506;28;20049;-64
2021/08/05 11:29:50;;;;;;;14.15;11.75;;;;;;;24.83;49.17;100760.78;10462621;28;20059;-67
2021/08/05 11:35:02;;;;;;;12.95;11.18;;;;;;;23.92;53.69;100749.97;10462458;28;20052;-64
2021/08/05 11:40:05;;;;;;;15.02;12.23;;;;;;;23.93;52.50;100751.59;10460977;28;20060;-65
2021/08/05 11:45:09;;;;;;;11.18;10.18;;;;;;;24.29;53.53;100747.50;10460871;28;20060;-65
2021/08/05 11:50:18;;;;;;;12.35;11.15;;;;;;;23.81;54.80;100739.63;10461969;28;20049;-65
2021/08/05 11:55:40;;;;;;;9.52;8.63;;;;;;;24.15;57.19;100734.94;10462275;28;20045;-65
2021/08/05 12:00:42;;;;;;;16.20;14.60;;;;;;;24.65;49.78;100720.16;10461414;28;20047;-65
2021/08/05 12:05:48;;;;;;;12.80;10.35;;;;;;;24.35;54.51;100721.91;10460877;28;20048;-67
2021/08/05 12:10:53;;;;;;;12.35;11.05;;;;;;;24.72;52.20;100710.38;10461284;28;20394;-67
2021/08/05 12:15:56;;;;;;;13.57;12.00;;;;;;;25.46;50.87;100697.97;10461097;28;20045;-66
2021/08/05 12:21:06;;;;;;;14.63;13.00;;;;;;;24.43;50.68;100693.22;10460644;28;20057;-64
2021/08/05 12:26:13;;;;;;;14.93;11.93;;;;;;;26.64;47.22;100696.63;10460510;28;20401;-66
2021/08/05 12:31:21;;;;;;;10.43;9.52;;;;;;;27.74;45.62;100694.06;10460186;28;20041;-68
2021/08/05 12:36:24;;;;;;;16.58;14.98;;;;;;;25.50;49.86;100686.69;10459147;28;20045;-65
2021/08/05 12:41:49;;;;;;;20.00;18.00;;;;;;;24.70;51.55;100684.81;10458864;28;20053;-66
2021/08/05 12:46:53;;;;;;;17.80;16.08;;;;;;;24.80;51.86;100682.69;10459550;28;20053;-64
2021/08/05 12:51:58;;;;;;;17.05;14.95;;;;;;;24.77;54.13;100683.88;10458141;28;20504;-65
2021/08/05 12:57:20;;;;;;;19.67;17.83;;;;;;;26.02;49.78;100678.56;10459043;28;20052;-66
2021/08/05 13:02:23;;;;;;;12.98;11.57;;;;;;;26.71;50.67;100677.06;10457879;28;20052;-67
2021/08/05 13:07:40;;;;;;;15.88;14.23;;;;;;;27.91;44.94;100669.47;10459121;28;20052;-67
2021/08/05 13:12:49;;;;;;;16.52;14.93;;;;;;;28.21;44.00;100661.84;10457483;28;20045;-67
2021/08/05 13:17:52;;;;;;;18.10;16.30;;;;;;;26.88;45.28;100670.31;10458463;28;20132;-67
2021/08/05 13:22:58;;;;;;;13.15;9.85;;;;;;;27.71;45.00;100658.66;10458317;28;20045;-65
2021/08/05 13:28:15;;;;;;;12.25;11.05;;;;;;;26.25;49.04;100662.25;10456463;28;20045;-66
2021/08/05 13:33:30;;;;;;;16.60;14.75;;;;;;;24.44;53.00;100661.94;10457714;28;20048;-66
2021/08/05 13:38:46;;;;;;;15.55;11.25;;;;;;;25.88;52.48;100658.81;10457804;28;20049;-68
2021/08/05 13:43:48;;;;;;;13.13;11.57;;;;;;;25.01;53.10;100657.81;10457748;28;20415;-66
2021/08/05 13:48:53;;;;;;;16.58;14.35;;;;;;;25.28;50.65;100652.81;10455905;28;20056;-65
2021/08/05 13:53:55;;;;;;;17.13;12.55;;;;;;;24.70;55.70;100644.66;10456987;28;20048;-66
2021/08/05 13:58:58;;;;;;;17.17;15.48;;;;;;;25.32;51.92;100643.41;10457309;28;20045;-65
2021/08/05 14:04:00;;;;;;;17.05;15.25;;;;;;;25.18;51.35;100637.88;10457061;28;20045;-66
2021/08/05 14:09:03;;;;;;;13.88;12.57;;;;;;;26.59;50.28;100637.28;10456206;28;20040;-67
2021/08/05 14:14:05;;;;;;;19.45;17.45;;;;;;;25.38;52.41;100627.38;10456436;28;20045;-66
2021/08/05 14:19:07;;;;;;;19.25;17.25;;;;;;;26.72;49.90;100616.97;10456394;28;20094;-65
2021/08/05 14:24:11;;;;;;;17.17;15.55;;;;;;;26.07;51.53;100623.31;10456757;28;20048;-67
2021/08/05 14:29:14;;;;;;;15.90;14.40;;;;;;;26.53;52.01;100608.56;10457243;28;20044;-65
2021/08/05 14:34:17;;;;;;;19.45;17.63;;;;;;;25.92;52.65;100607.31;10454966;28;20045;-66
2021/08/05 14:39:20;;;;;;;15.55;13.95;;;;;;;26.74;51.23;100596.94;10454799;28;20496;-66
2021/08/05 14:44:22;;;;;;;20.20;18.08;;;;;;;25.22;52.64;100584.75;10456061;28;20045;-66
2021/08/05 14:49:25;;;;;;;24.15;20.83;;;;;;;24.48;53.34;100578.44;10455260;28;20053;-65
2021/08/05 14:54:27;;;;;;;22.23;20.13;;;;;;;24.38;55.71;100580.56;10456021;28;20045;-64
2021/08/05 14:59:29;;;;;;;18.35;16.65;;;;;;;25.95;53.08;100576.59;10456245;28;20056;-65
2021/08/05 15:04:32;;;;;;;18.00;16.13;;;;;;;25.74;51.61;100575.56;10455955;28;20049;-66
2021/08/05 15:09:34;;;;;;;22.33;20.05;;;;;;;24.93;50.34;100572.22;10455344;28;20059;-65
2021/08/05 15:14:36;;;;;;;17.80;16.02;;;;;;;26.85;46.81;100552.56;10455281;28;20479;-65
2021/08/05 15:19:39;;;;;;;21.17;18.85;;;;;;;24.79;50.89;100557.88;10459643;28;20049;-66
2021/08/05 15:24:42;;;;;;;22.30;18.80;;;;;;;23.91;53.19;100544.28;10463304;28;20096;-66
2021/08/05 15:29:44;;;;;;;17.90;16.17;;;;;;;24.01;54.57;100536.81;10461309;28;20056;-66
2021/08/05 15:34:46;;;;;;;19.90;15.93;;;;;;;23.88;54.92;100536.63;10463613;28;20045;-67
2021/08/05 15:39:49;;;;;;;19.95;17.90;;;;;;;24.16;53.91;100528.81;10462549;28;20078;-65
2021/08/05 15:44:51;;;;;;;15.68;14.07;;;;;;;25.22;52.96;100523.13;10460781;28;20053;-68
2021/08/05 15:49:53;;;;;;;19.17;17.27;;;;;;;24.32;52.81;100506.38;10462280;28;20052;-64
2021/08/05 15:54:56;;;;;;;18.45;16.65;;;;;;;24.74;53.37;100517.44;10462062;28;20045;-66
2021/08/05 15:59:59;;;;;;;15.48;13.95;;;;;;;24.99;54.39;100502.69;10461893;28;20056;-66
2021/08/05 16:05:01;;;;;;;17.23;15.43;;;;;;;25.15;51.03;100498.09;10460674;28;20057;-65
2021/08/05 16:10:07;;;;;;;15.30;13.65;;;;;;;25.20;52.07;100503.72;10459947;28;20052;-66
2021/08/05 16:15:11;;;;;;;17.95;16.30;;;;;;;24.46;55.57;100494.00;10461086;28;20524;-67
2021/08/05 16:20:15;;;;;;;20.55;17.98;;;;;;;23.38;57.02;100490.75;10460599;28;20049;-66
2021/08/05 16:25:18;;;;;;;24.30;20.63;;;;;;;23.53;56.93;100480.09;10461134;28;20045;-67
2021/08/05 16:30:40;;;;;;;19.25;15.20;;;;;;;23.27;59.33;100483.19;10458678;28;20048;-65
2021/08/05 16:35:43;;;;;;;18.55;16.75;;;;;;;23.85;57.64;100476.31;10460737;28;20049;-65
2021/08/05 16:40:46;;;;;;;17.67;15.88;;;;;;;23.68;55.65;100483.63;10460104;28;20049;-65
2021/08/05 16:45:48;;;;;;;18.02;15.30;;;;;;;23.56;54.54;100475.22;10459828;28;20065;-64
2021/08/05 16:50:51;;;;;;;16.80;14.05;;;;;;;23.72;54.15;100471.59;10459505;28;20048;-65
2021/08/05 16:55:54;;;;;;;13.88;12.57;;;;;;;23.94;54.91;100469.06;10459271;28;20400;-67
2021/08/05 17:00:56;;;;;;;15.88;14.38;;;;;;;23.66;53.99;100471.47;10458920;28;20051;-65
2021/08/05 17:05:59;;;;;;;15.18;12.77;;;;;;;23.83;54.50;100464.97;10458739;28;20075;-66
2021/08/05 17:11:01;;;;;;;14.35;12.82;;;;;;;23.51;54.99;100471.44;10459306;28;20139;-65
2021/08/05 17:16:04;;;;;;;11.50;9.63;;;;;;;23.88;56.69;100467.09;10458201;28;20048;-68
2021/08/05 17:21:07;;;;;;;10.27;9.27;;;;;;;24.14;55.16;100455.97;10458456;28;20049;-68
2021/08/05 17:26:09;;;;;;;13.25;11.05;;;;;;;23.66;56.00;100450.09;10457515;28;20056;-68
2021/08/05 17:31:13;;;;;;;10.02;8.88;;;;;;;24.15;55.70;100459.47;10457869;28;20056;-66
2021/08/05 17:36:15;;;;;;;11.25;10.15;;;;;;;24.01;56.35;100443.22;10457051;28;20060;-66
2021/08/05 17:41:17;;;;;;;13.95;11.95;;;;;;;23.40;57.63;100447.81;10457042;28;20056;-66
2021/08/05 17:46:20;;;;;;;14.45;12.10;;;;;;;22.98;58.82;100433.94;10456742;28;20049;-65
2021/08/05 17:51:22;;;;;;;15.23;11.95;;;;;;;22.84;59.30;100440.06;10456976;28;20052;-66
2021/08/05 17:56:25;;;;;;;14.48;12.90;;;;;;;22.49;61.28;100427.06;10457310;28;20053;-65
2021/08/05 18:01:27;;;;;;;12.88;11.50;;;;;;;22.32;61.54;100421.00;10457294;28;20052;-67
2021/08/05 18:06:30;;;;;;;13.23;11.88;;;;;;;22.25;63.35;100418.16;10456774;28;20047;-67
2021/08/05 18:11:32;;;;;;;16.17;14.68;;;;;;;21.95;62.87;100421.63;10455920;28;20053;-65
2021/08/05 18:16:35;;;;;;;13.65;12.35;;;;;;;21.82;65.23;100417.66;10456561;28;20049;-67
2021/08/05 18:21:38;;;;;;;14.27;11.75;;;;;;;21.73;65.76;100420.53;10457069;28;20087;-66
2021/08/05 18:26:40;;;;;;;16.58;12.30;;;;;;;21.17;68.40;100413.22;10456523;28;20057;-68
2021/08/05 18:31:42;;;;;;;13.70;12.30;;;;;;;21.06;69.41;100413.56;10456246;28;20041;-66
2021/08/05 18:36:45;;;;;;;11.93;10.80;;;;;;;20.89;70.36;100408.22;10456248;28;20428;-67
2021/08/05 18:41:47;;;;;;;13.43;12.00;;;;;;;20.63;70.75;100412.81;10456041;28;20416;-68
2021/08/05 18:46:49;;;;;;;11.43;10.13;;;;;;;20.47;71.38;100410.94;10455998;28;20057;-64
2021/08/05 18:51:53;;;;;;;11.82;10.82;;;;;;;20.17;72.47;100414.00;10457726;28;20045;-64
2021/08/05 18:56:56;;;;;;;11.48;10.38;;;;;;;19.73;74.56;100416.72;10462516;28;20499;-69
2021/08/05 19:01:58;;;;;;;14.45;10.95;;;;;;;19.58;74.80;100418.28;10463187;28;20059;-66
2021/08/05 19:07:01;;;;;;;20.35;10.82;;;;;;;19.33;75.45;100414.63;10463585;28;20044;-66
2021/08/05 19:12:04;;;;;;;12.57;11.30;;;;;;;19.16;75.75;100414.50;10463797;28;20055;-67
2021/08/05 19:17:07;;;;;;;12.57;11.38;;;;;;;19.12;75.66;100426.41;10462748;28;20406;-66
2021/08/05 19:22:10;;;;;;;13.00;11.70;;;;;;;18.81;76.77;100431.22;10463570;28;20049;-67
2021/08/05 19:27:13;;;;;;;16.85;15.10;;;;;;;18.53;77.48;100428.63;10463127;28;20052;-65
2021/08/05 19:32:15;;;;;;;16.00;14.40;;;;;;;18.52;77.68;100424.28;10462708;28;20052;-66
2021/08/05 19:37:18;;;;;;;15.82;13.88;;;;;;;18.46;77.76;100424.88;10460991;28;20052;-65
2021/08/05 19:42:20;;;;;;;16.80;15.13;;;;;;;18.25;78.09;100427.78;10462178;28;20055;-68
2021/08/05 19:47:22;;;;;;;18.30;15.55;;;;;;;18.16;77.94;100416.28;10461964;28;20059;-66
2021/08/05 19:52:25;;;;;;;15.98;13.90;;;;;;;18.04;78.48;100417.41;10461589;28;20051;-66
2021/08/05 19:57:27;;;;;;;15.13;13.55;;;;;;;17.98;78.53;100417.03;10461365;28;20487;-67
2021/08/05 20:02:30;;;;;;;16.98;14.90;;;;;;;17.85;79.09;100411.19;10460466;28;20044;-66
2021/08/05 20:07:33;;;;;;;17.15;14.65;;;;;;;17.67;79.30;100402.31;10459411;28;20124;-68
2021/08/05 20:12:36;;;;;;;16.10;12.77;;;;;;;17.78;78.61;100402.97;10461115;28;20049;-65
2021/08/05 20:17:38;;;;;;;14.48;13.07;;;;;;;17.61;79.13;100393.97;10459957;28;20049;-65
2021/08/05 20:22:41;;;;;;;15.38;13.98;;;;;;;17.40;79.82;100380.94;10460528;28;20061;-65
2021/08/05 20:27:44;;;;;;;14.02;12.60;;;;;;;17.35;80.36;100384.97;10460702;28;20056;-66
2021/08/05 20:32:47;;;;;;;14.55;13.13;;;;;;;17.41;79.78;100384.41;10460088;28;20371;-66
2021/08/05 20:37:49;;;;;;;14.48;12.98;;;;;;;17.27;79.37;100375.13;10460247;28;20044;-66
2021/08/05 20:42:52;;;;;;;11.93;10.73;;;;;;;17.23;80.03;100371.94;10459901;28;20048;-65
2021/08/05 20:47:54;;;;;;;11.50;10.40;;;;;;;17.20;80.03;100361.63;10443114;28;20049;-65
2021/08/05 20:52:57;;;;;;;10.35;9.38;;;;;;;17.26;80.14;100362.84;10459575;28;20060;-64
2021/08/05 20:58:00;;;;;;;10.30;9.25;;;;;;;17.38;78.89;100367.03;10459188;28;20052;-65
2021/08/05 21:03:02;;;;;;;10.15;9.25;;;;;;;17.26;79.09;100361.06;10458365;28;20048;-67
2021/08/05 21:08:05;;;;;;;8.27;7.57;;;;;;;17.44;78.68;100361.16;10458613;28;20072;-67
2021/08/05 21:13:08;;;;;;;8.85;8.05;;;;;;;17.38;78.96;100359.09;10458701;28;20045;-67
2021/08/05 21:18:10;;;;;;;8.05;7.03;;;;;;;17.35;78.20;100364.66;10457483;28;20501;-63
2021/08/05 21:23:12;;;;;;;7.53;6.82;;;;;;;17.48;77.72;100353.75;10458373;28;20060;-65
2021/08/05 21:28:15;;;;;;;7.13;6.40;;;;;;;17.54;78.29;100339.13;10457937;28;20048;-65
2021/08/05 21:33:17;;;;;;;8.55;5.40;;;;;;;17.61;76.68;100335.75;10457750;28;20592;-67
2021/08/05 21:38:20;;;;;;;6.03;5.15;;;;;;;17.42;77.28;100336.66;10457611;28;20477;-64
2021/08/05 21:43:22;;;;;;;5.47;4.30;;;;;;;18.23;71.34;100339.69;10457651;28;20049;-67
2021/08/05 21:48:24;;;;;;;6.50;4.82;;;;;;;17.91;73.67;100333.00;10457803;28;20045;-65
2021/08/05 21:53:27;;;;;;;5.85;5.13;;;;;;;18.04;72.51;100328.22;10455911;28;20041;-66
2021/08/05 21:58:29;;;;;;;6.18;4.50;;;;;;;18.04;72.94;100312.31;10456942;28;20049;-65
2021/08/05 22:03:31;;;;;;;5.50;4.90;;;;;;;18.06;73.23;100304.22;10457261;28;20045;-66
2021/08/05 22:08:34;;;;;;;5.90;5.22;;;;;;;17.80;75.27;100299.56;10456972;28;20051;-65
2021/08/05 22:13:36;;;;;;;6.63;5.82;;;;;;;17.83;75.43;100302.75;10457167;28;20049;-64
2021/08/05 22:18:38;;;;;;;10.57;4.75;;;;;;;18.01;73.49;100294.91;10455402;28;20405;-67
2021/08/05 22:23:41;;;;;;;5.72;5.18;;;;;;;18.00;72.88;100281.78;10455488;28;20056;-65
2021/08/05 22:28:43;;;;;;;6.47;5.00;;;;;;;17.43;76.99;100274.81;10460837;28;20052;-66
2021/08/05 22:33:46;;;;;;;5.80;5.07;;;;;;;17.38;77.39;100274.41;10465157;28;20053;-66
2021/08/05 22:38:49;;;;;;;6.85;5.03;;;;;;;17.20;78.01;100262.94;10464966;28;20041;-65
2021/08/05 22:43:51;;;;;;;6.28;5.30;;;;;;;17.06;78.89;100251.81;10464588;28;20052;-65
2021/08/05 22:48:54;;;;;;;6.72;5.88;;;;;;;16.97;79.10;100243.91;10463799;28;20516;-69